createdAt,value
2019-05-26T00:02:25.070Z,88.80
2019-05-26T00:04:54.601Z,88.90
2019-05-26T00:07:30.724Z,89.10
2019-05-26T00:09:53.927Z,89.10
2019-05-26T00:12:22.679Z,89.90
2019-05-26T00:14:51.462Z,90.00
2019-05-26T00:17:20.275Z,90.20
2019-05-26T00:19:49.129Z,90.40
2019-05-26T00:22:18.042Z,90.60
2019-05-26T00:24:46.829Z,90.60
2019-05-26T00:27:15.708Z,90.80
2019-05-26T00:29:44.537Z,90.80
2019-05-26T00:32:13.379Z,91.10
2019-05-26T00:34:42.191Z,91.20
2019-05-26T00:37:10.962Z,91.10
2019-05-26T00:39:39.587Z,90.90
2019-05-26T00:42:08.409Z,90.90
2019-05-26T00:44:37.121Z,90.70
2019-05-26T00:47:06.029Z,90.70
2019-05-26T00:49:35.110Z,90.80
2019-05-26T00:52:04.003Z,90.70
2019-05-26T00:54:32.841Z,90.70
2019-05-26T00:57:01.847Z,90.80
2019-05-26T00:59:30.702Z,90.60
2019-05-26T01:01:59.516Z,90.70
2019-05-26T01:04:28.356Z,90.70
2019-05-26T01:06:57.211Z,90.90
2019-05-26T01:09:26.086Z,91.00
2019-05-26T01:11:54.966Z,91.20
2019-05-26T01:14:23.706Z,91.20
2019-05-26T01:16:55.715Z,91.10
2019-05-26T01:19:22.970Z,90.90
2019-05-26T01:21:51.873Z,91.00
2019-05-26T01:24:20.613Z,91.30
2019-05-26T01:26:49.456Z,91.60
2019-05-26T01:29:21.721Z,92.00
2019-05-26T01:31:50.619Z,91.90
2019-05-26T01:34:19.599Z,91.90
2019-05-26T01:36:49.241Z,91.90
2019-05-26T01:39:18.287Z,91.60
2019-05-26T01:41:51.491Z,91.70
2019-05-26T01:44:20.343Z,91.80
2019-05-26T01:46:49.255Z,91.80
2019-05-26T01:49:18.073Z,91.80
2019-05-26T01:51:46.810Z,91.80
2019-05-26T01:54:15.704Z,91.90
2019-05-26T01:56:44.336Z,91.80
2019-05-26T01:59:13.114Z,91.90
2019-05-26T02:01:47.165Z,91.80
2019-05-26T02:04:17.569Z,91.90
2019-05-26T02:06:46.426Z,91.70
2019-05-26T02:09:15.200Z,91.50
2019-05-26T02:11:44.713Z,91.60
2019-05-26T02:14:18.932Z,91.80
2019-05-26T02:16:48.623Z,91.80
2019-05-26T02:19:17.643Z,91.80
2019-05-26T02:21:46.450Z,91.80
2019-05-26T02:24:15.232Z,91.80
2019-05-26T02:26:44.019Z,91.80
2019-05-26T02:29:12.821Z,91.80
2019-05-26T02:31:41.766Z,91.80
2019-05-26T02:34:10.993Z,91.40
2019-05-26T02:36:39.857Z,91.30
2019-05-26T02:39:11.191Z,91.20
2019-05-26T02:41:39.931Z,90.90
2019-05-26T02:44:09.048Z,90.90
2019-05-26T02:46:37.881Z,91.10
2019-05-26T02:49:06.602Z,90.90
2019-05-26T02:51:35.355Z,90.80
2019-05-26T02:54:04.566Z,90.80
2019-05-26T02:56:33.656Z,90.90
2019-05-26T02:59:02.374Z,90.70
2019-05-26T03:01:32.202Z,90.70
2019-05-26T03:04:01.332Z,90.50
2019-05-26T03:06:31.235Z,90.20
2019-05-26T03:09:21.191Z,90.40
2019-05-26T03:11:35.076Z,90.30
2019-05-26T03:14:04.983Z,90.20
2019-05-26T03:16:36.551Z,90.00
2019-05-26T03:19:05.541Z,89.80
2019-05-26T03:21:35.338Z,89.80
2019-05-26T03:24:05.057Z,89.80
2019-05-26T03:26:33.945Z,89.80
2019-05-26T03:29:02.767Z,89.50
2019-05-26T03:31:31.696Z,89.40
2019-05-26T03:34:00.549Z,89.60
2019-05-26T03:36:29.331Z,89.70
2019-05-26T03:38:58.076Z,89.80
2019-05-26T03:41:26.906Z,90.00
2019-05-26T03:43:55.693Z,90.00
2019-05-26T03:46:24.432Z,90.10
2019-05-26T03:48:53.275Z,90.00
2019-05-26T03:51:21.995Z,89.90
2019-05-26T03:53:50.801Z,89.20
2019-05-26T03:56:19.598Z,88.40
2019-05-26T03:58:48.486Z,87.60
2019-05-26T04:01:17.175Z,87.10
2019-05-26T04:03:46.114Z,85.40
2019-05-26T04:06:14.975Z,84.70
2019-05-26T04:08:43.789Z,84.80
2019-05-26T04:11:12.514Z,84.10
2019-05-26T04:13:41.320Z,83.30
2019-05-26T04:16:10.110Z,82.20
2019-05-26T04:18:38.943Z,81.90
2019-05-26T04:21:07.820Z,81.40
2019-05-26T04:23:36.626Z,80.70
2019-05-26T04:26:05.368Z,80.00
2019-05-26T04:28:34.193Z,78.20
2019-05-26T04:31:03.071Z,76.50
2019-05-26T04:33:31.907Z,76.70
2019-05-26T04:36:00.745Z,75.60
2019-05-26T04:38:29.512Z,73.70
2019-05-26T04:40:58.401Z,73.30
2019-05-26T04:43:27.187Z,72.40
2019-05-26T04:45:56.060Z,72.70
2019-05-26T04:48:24.850Z,73.70
2019-05-26T04:50:53.500Z,74.30
2019-05-26T04:53:22.312Z,74.10
2019-05-26T04:55:51.033Z,73.50
2019-05-26T04:58:19.821Z,73.10
2019-05-26T05:00:48.565Z,72.90
2019-05-26T05:03:17.375Z,72.50
2019-05-26T05:05:46.161Z,72.20
2019-05-26T05:08:14.977Z,72.00
2019-05-26T05:10:43.742Z,71.30
2019-05-26T05:13:12.542Z,70.80
2019-05-26T05:15:41.446Z,69.80
2019-05-26T05:18:10.144Z,68.50
2019-05-26T05:20:39.138Z,68.10
2019-05-26T05:23:07.907Z,67.70
2019-05-26T05:25:36.671Z,68.70
2019-05-26T05:28:05.474Z,68.70
2019-05-26T05:30:34.362Z,68.90
2019-05-26T05:33:03.075Z,67.00
2019-05-26T05:35:31.821Z,66.40
2019-05-26T05:38:00.549Z,64.60
2019-05-26T05:40:29.644Z,61.10
2019-05-26T05:42:58.387Z,60.20
2019-05-26T05:45:27.233Z,56.30
2019-05-26T05:47:55.890Z,54.60
2019-05-26T05:50:24.661Z,53.60
2019-05-26T05:52:53.597Z,52.70
2019-05-26T05:55:22.354Z,53.20
2019-05-26T05:58:05.584Z,51.20
2019-05-26T06:00:34.361Z,48.90
2019-05-26T06:03:03.119Z,46.20
2019-05-26T06:05:32.149Z,42.00
2019-05-26T06:08:00.900Z,39.70
2019-05-26T06:10:29.745Z,38.70
2019-05-26T06:12:58.408Z,41.90
2019-05-26T06:15:27.124Z,40.80
2019-05-26T06:17:55.743Z,41.30
2019-05-26T06:20:24.730Z,41.10
2019-05-26T06:22:53.424Z,41.50
2019-05-26T06:25:22.377Z,40.70
2019-05-26T06:27:52.253Z,39.60
2019-05-26T06:30:21.748Z,40.60
2019-05-26T06:32:50.529Z,42.10
2019-05-26T06:35:19.730Z,39.00
2019-05-26T06:37:48.600Z,38.20
2019-05-26T06:40:17.783Z,38.20
2019-05-26T06:42:46.557Z,39.50
2019-05-26T06:45:16.013Z,38.70
2019-05-26T06:47:45.025Z,37.10
2019-05-26T06:50:14.604Z,35.50
2019-05-26T06:52:43.395Z,32.00
2019-05-26T06:55:13.288Z,27.40
2019-05-26T06:57:42.095Z,25.00
2019-05-26T07:00:11.527Z,22.90
2019-05-26T07:02:40.286Z,22.80
2019-05-26T07:05:10.686Z,23.80
2019-05-26T07:07:39.428Z,22.90
2019-05-26T07:10:08.846Z,23.40
2019-05-26T07:12:38.332Z,23.70
2019-05-26T07:15:08.245Z,25.90
2019-05-26T07:17:37.071Z,25.70
2019-05-26T07:20:07.784Z,24.10
2019-05-26T07:22:36.812Z,23.80
2019-05-26T07:25:07.861Z,22.90
2019-05-26T07:27:36.675Z,21.70
2019-05-26T07:30:07.374Z,21.80
2019-05-26T07:32:36.324Z,21.80
2019-05-26T07:35:06.564Z,22.30
2019-05-26T07:37:35.523Z,19.60
2019-05-26T07:40:05.060Z,19.30
2019-05-26T07:42:34.145Z,18.00
2019-05-26T07:45:02.889Z,16.50
2019-05-26T07:47:31.704Z,15.10
2019-05-26T07:50:00.639Z,14.40
2019-05-26T07:52:29.446Z,13.70
2019-05-26T07:54:58.513Z,14.50
2019-05-26T07:57:27.299Z,14.30
2019-05-26T07:59:56.102Z,12.60
2019-05-26T08:02:27.849Z,12.30
2019-05-26T08:04:56.676Z,12.20
2019-05-26T08:07:25.471Z,11.50
2019-05-26T08:09:54.259Z,10.90
2019-05-26T08:12:26.875Z,10.00
2019-05-26T08:14:53.684Z,8.00
2019-05-26T08:17:22.593Z,8.40
2019-05-26T08:19:51.588Z,6.90
2019-05-26T08:22:25.061Z,5.70
2019-05-26T08:24:57.118Z,3.70
2019-05-26T08:27:25.923Z,3.60
2019-05-26T08:29:57.643Z,4.00
2019-05-26T08:32:26.458Z,2.30
2019-05-26T08:34:55.403Z,2.10
2019-05-26T08:37:24.239Z,2.50
2019-05-26T08:39:53.027Z,1.60
2019-05-26T08:42:27.281Z,1.00
2019-05-26T08:44:52.390Z,1.00
2019-05-26T08:47:21.221Z,1.00
2019-05-26T08:49:50.016Z,1.00
2019-05-26T08:52:18.877Z,1.40
2019-05-26T08:54:48.000Z,1.70
2019-05-26T08:57:16.752Z,1.90
2019-05-26T08:59:45.785Z,1.40
2019-05-26T09:02:14.716Z,2.20
2019-05-26T09:04:43.503Z,2.00
2019-05-26T09:07:12.331Z,2.10
2019-05-26T09:09:41.104Z,1.70
2019-05-26T09:12:09.969Z,2.40
2019-05-26T09:14:38.706Z,2.60
2019-05-26T09:17:07.495Z,2.60
2019-05-26T09:19:36.296Z,2.70
2019-05-26T09:22:05.151Z,2.40
2019-05-26T09:24:33.935Z,2.60
2019-05-26T09:27:03.391Z,3.70
2019-05-26T09:29:32.073Z,4.20
2019-05-26T09:32:00.992Z,4.50
2019-05-26T09:34:29.688Z,5.00
2019-05-26T09:36:58.480Z,4.40
2019-05-26T09:39:27.367Z,5.10
2019-05-26T09:41:56.128Z,5.40
2019-05-26T09:44:24.920Z,5.00
2019-05-26T09:46:53.709Z,5.10
2019-05-26T09:49:22.562Z,5.40
2019-05-26T09:51:51.700Z,5.30
2019-05-26T09:54:20.471Z,4.70
2019-05-26T09:56:49.595Z,4.90
2019-05-26T09:59:18.474Z,5.30
2019-05-26T10:01:47.378Z,5.80
2019-05-26T10:04:16.138Z,5.90
2019-05-26T10:06:44.973Z,5.80
2019-05-26T10:09:13.826Z,5.80
2019-05-26T10:11:42.639Z,5.60
2019-05-26T10:14:11.424Z,5.30
2019-05-26T10:16:40.239Z,4.70
2019-05-26T10:19:09.086Z,4.60
2019-05-26T10:21:37.941Z,4.10
2019-05-26T10:24:06.732Z,4.10
2019-05-26T10:26:35.543Z,3.50
2019-05-26T10:29:04.534Z,3.70
2019-05-26T10:31:33.349Z,4.10
2019-05-26T10:34:02.212Z,4.00
2019-05-26T10:36:31.346Z,3.10
2019-05-26T10:39:00.103Z,3.30
2019-05-26T10:41:28.972Z,2.10
2019-05-26T10:43:57.839Z,2.30
2019-05-26T10:46:26.607Z,1.40
2019-05-26T10:49:07.297Z,1.00
2019-05-26T10:51:36.152Z,1.00
2019-05-26T10:54:05.150Z,1.00
2019-05-26T10:56:33.906Z,1.00
2019-05-26T10:59:02.777Z,1.00
2019-05-26T11:01:31.530Z,1.00
2019-05-26T11:04:00.370Z,1.00
2019-05-26T11:06:29.187Z,1.00
2019-05-26T11:08:58.966Z,1.00
2019-05-26T11:11:27.754Z,1.00
2019-05-26T11:14:02.706Z,1.00
2019-05-26T11:16:27.095Z,1.20
2019-05-26T11:18:55.944Z,1.20
2019-05-26T11:21:24.774Z,1.00
2019-05-26T11:23:54.304Z,1.10
2019-05-26T11:26:23.215Z,1.60
2019-05-26T11:28:52.040Z,2.20
2019-05-26T11:31:20.934Z,2.70
2019-05-26T11:33:50.059Z,2.50
2019-05-26T11:36:20.430Z,2.70
2019-05-26T11:38:49.785Z,3.10
2019-05-26T11:41:18.658Z,2.90
2019-05-26T11:43:47.489Z,2.40
2019-05-26T11:46:17.059Z,3.10
2019-05-26T11:48:47.562Z,3.60
2019-05-26T11:51:16.525Z,4.10
2019-05-26T11:53:45.268Z,4.70
2019-05-26T11:56:14.041Z,4.70
2019-05-26T11:58:42.849Z,5.80
2019-05-26T12:01:11.709Z,4.30
2019-05-26T12:03:40.505Z,4.20
2019-05-26T12:06:09.333Z,4.40
2019-05-26T12:08:38.163Z,4.40
2019-05-26T12:11:06.992Z,4.00
2019-05-26T12:13:36.776Z,3.90
2019-05-26T12:16:05.855Z,3.60
2019-05-26T12:18:34.754Z,4.20
2019-05-26T12:21:03.660Z,4.00
2019-05-26T12:23:32.394Z,4.10
2019-05-26T12:26:01.227Z,3.70
2019-05-26T12:28:30.090Z,3.40
2019-05-26T12:30:59.144Z,2.80
2019-05-26T12:33:28.701Z,3.20
2019-05-26T12:35:57.501Z,2.40
2019-05-26T12:38:26.340Z,3.40
2019-05-26T12:40:55.241Z,2.80
2019-05-26T12:43:24.013Z,3.30
2019-05-26T12:45:53.692Z,3.80
2019-05-26T12:48:22.474Z,3.70
2019-05-26T12:50:51.289Z,3.60
2019-05-26T12:53:20.790Z,3.00
2019-05-26T12:55:49.597Z,3.60
2019-05-26T12:58:18.486Z,4.00
2019-05-26T13:00:54.791Z,3.90
2019-05-26T13:03:22.086Z,3.90
2019-05-26T13:05:50.846Z,4.30
2019-05-26T13:08:19.634Z,3.10
2019-05-26T13:10:48.494Z,2.50
2019-05-26T13:13:17.972Z,2.60
2019-05-26T13:15:48.191Z,2.80
2019-05-26T13:18:18.584Z,2.60
2019-05-26T13:20:47.338Z,2.80
2019-05-26T13:23:16.201Z,2.50
2019-05-26T13:25:45.037Z,2.30
2019-05-26T13:28:13.852Z,3.00
2019-05-26T13:30:42.830Z,2.80
2019-05-26T13:33:12.222Z,2.60
2019-05-26T13:35:41.042Z,3.20
2019-05-26T13:38:09.923Z,3.20
2019-05-26T13:40:38.753Z,2.90
2019-05-26T13:43:07.593Z,1.90
2019-05-26T13:45:36.476Z,3.30
2019-05-26T13:48:05.572Z,3.30
2019-05-26T13:50:34.450Z,3.50
2019-05-26T13:53:03.336Z,4.10
2019-05-26T13:55:32.982Z,4.10
2019-05-26T13:58:01.809Z,4.40
2019-05-26T14:00:30.685Z,4.90
2019-05-26T14:02:59.489Z,4.90
2019-05-26T14:05:28.395Z,5.00
2019-05-26T14:07:57.243Z,6.00
2019-05-26T14:10:28.865Z,6.10
2019-05-26T14:12:57.940Z,6.10
2019-05-26T14:15:37.386Z,5.70
2019-05-26T14:17:58.312Z,5.00
2019-05-26T14:20:29.902Z,4.90
2019-05-26T14:22:58.599Z,5.40
2019-05-26T14:25:27.797Z,5.50
2019-05-26T14:27:56.665Z,4.20
2019-05-26T14:30:25.576Z,5.10
2019-05-26T14:32:54.490Z,5.40
2019-05-26T14:35:23.394Z,5.30
2019-05-26T14:37:52.204Z,5.80
2019-05-26T14:40:21.340Z,6.10
2019-05-26T14:42:50.184Z,6.50
2019-05-26T14:45:20.615Z,6.70
2019-05-26T14:47:49.412Z,6.30
2019-05-26T14:50:20.287Z,6.60
2019-05-26T14:52:49.126Z,6.80
2019-05-26T14:55:18.231Z,7.30
2019-05-26T14:57:47.140Z,7.10
2019-05-26T15:00:17.692Z,8.40
2019-05-26T15:02:46.485Z,8.60
2019-05-26T15:05:16.167Z,8.50
2019-05-26T15:07:46.369Z,9.20
2019-05-26T15:10:15.926Z,9.00
2019-05-26T15:12:44.738Z,8.60
2019-05-26T15:15:14.981Z,8.60
2019-05-26T15:17:43.796Z,8.50
2019-05-26T15:20:14.357Z,8.60
2019-05-26T15:22:43.093Z,9.20
2019-05-26T15:25:13.015Z,10.00
2019-05-26T15:27:41.956Z,9.30
2019-05-26T15:30:12.341Z,9.40
2019-05-26T15:32:41.141Z,9.70
2019-05-26T15:35:11.402Z,9.20
2019-05-26T15:37:40.347Z,9.40
2019-05-26T15:40:09.653Z,9.80
2019-05-26T15:42:38.482Z,10.10
2019-05-26T15:45:08.293Z,10.10
2019-05-26T15:47:37.137Z,10.50
2019-05-26T15:50:07.643Z,10.10
2019-05-26T15:52:37.911Z,10.20
2019-05-26T15:55:07.612Z,9.90
2019-05-26T15:57:36.509Z,9.80
2019-05-26T16:00:08.319Z,9.80
2019-05-26T16:02:37.115Z,9.80
2019-05-26T16:05:06.764Z,9.70
2019-05-26T16:07:36.273Z,9.90
2019-05-26T16:10:07.960Z,10.40
2019-05-26T16:12:37.995Z,10.80
2019-05-26T16:15:08.971Z,10.40
2019-05-26T16:17:38.843Z,10.70
2019-05-26T16:20:10.202Z,11.20
2019-05-26T16:22:39.052Z,11.50
2019-05-26T16:25:08.513Z,11.60
2019-05-26T16:27:37.789Z,11.60
2019-05-26T16:30:08.564Z,11.70
2019-05-26T16:32:38.805Z,11.90
2019-05-26T16:35:08.482Z,12.00
2019-05-26T16:37:37.281Z,12.20
2019-05-26T16:40:06.654Z,12.40
2019-05-26T16:42:35.515Z,12.40
2019-05-26T16:45:05.814Z,12.90
2019-05-26T16:47:34.744Z,13.30
2019-05-26T16:50:04.881Z,13.60
2019-05-26T16:52:33.687Z,13.60
2019-05-26T16:55:02.571Z,14.00
2019-05-26T16:57:32.773Z,14.40
2019-05-26T17:00:01.712Z,14.70
2019-05-26T17:02:30.527Z,15.40
2019-05-26T17:04:59.690Z,15.20
2019-05-26T17:07:28.498Z,15.70
2019-05-26T17:09:57.291Z,16.00
2019-05-26T17:12:26.056Z,16.30
2019-05-26T17:14:54.800Z,16.80
2019-05-26T17:17:23.577Z,16.80
2019-05-26T17:19:53.257Z,16.80
2019-05-26T17:22:22.168Z,16.70
2019-05-26T17:24:51.072Z,16.70
2019-05-26T17:27:19.916Z,16.60
2019-05-26T17:29:48.680Z,17.30
2019-05-26T17:32:17.544Z,17.40
2019-05-26T17:34:46.306Z,17.50
2019-05-26T17:37:15.097Z,17.90
2019-05-26T17:39:43.992Z,17.60
2019-05-26T17:42:12.811Z,17.90
2019-05-26T17:44:41.504Z,18.20
2019-05-26T17:47:10.637Z,18.70
2019-05-26T17:49:39.773Z,19.40
2019-05-26T17:52:09.277Z,20.80
2019-05-26T17:54:38.130Z,21.90
2019-05-26T17:57:08.042Z,22.70
2019-05-26T17:59:36.948Z,23.30
2019-05-26T18:02:06.442Z,24.10
2019-05-26T18:04:35.372Z,25.00
2019-05-26T18:07:04.670Z,25.00
2019-05-26T18:09:43.555Z,24.90
2019-05-26T18:12:04.462Z,25.20
2019-05-26T18:14:34.664Z,25.70
2019-05-26T18:17:03.524Z,26.20
2019-05-26T18:19:32.349Z,25.50
2019-05-26T18:22:01.216Z,25.50
2019-05-26T18:24:30.099Z,25.70
2019-05-26T18:26:58.862Z,26.00
2019-05-26T18:29:27.684Z,26.70
2019-05-26T18:31:57.901Z,26.90
2019-05-26T18:34:27.431Z,27.10
2019-05-26T18:36:56.322Z,27.70
2019-05-26T18:39:25.167Z,28.00
2019-05-26T18:41:54.068Z,28.20
2019-05-26T18:44:23.006Z,28.40
2019-05-26T18:46:53.708Z,28.60
2019-05-26T18:49:22.411Z,29.00
2019-05-26T18:51:51.316Z,28.80
2019-05-26T18:54:20.180Z,29.10
2019-05-26T18:56:49.005Z,28.80
2019-05-26T18:59:18.108Z,29.30
2019-05-26T19:01:46.969Z,29.60
2019-05-26T19:04:15.759Z,29.70
2019-05-26T19:06:45.128Z,29.90
2019-05-26T19:09:13.961Z,30.20
2019-05-26T19:11:42.879Z,31.10
2019-05-26T19:14:11.688Z,31.10
2019-05-26T19:16:40.597Z,31.70
2019-05-26T19:19:10.831Z,31.60
2019-05-26T19:21:39.848Z,31.80
2019-05-26T19:24:09.142Z,32.30
2019-05-26T19:26:39.473Z,32.50
2019-05-26T19:29:08.351Z,32.80
2019-05-26T19:31:37.292Z,33.40
2019-05-26T19:34:06.752Z,33.40
2019-05-26T19:36:35.556Z,33.30
2019-05-26T19:39:06.412Z,34.50
2019-05-26T19:41:38.989Z,34.20
2019-05-26T19:44:06.096Z,34.60
2019-05-26T19:46:36.357Z,35.80
2019-05-26T19:49:07.679Z,35.70
2019-05-26T19:51:37.390Z,37.20
2019-05-26T19:54:06.286Z,36.80
2019-05-26T19:56:35.063Z,37.50
2019-05-26T19:59:04.202Z,38.20
2019-05-26T20:01:34.568Z,38.90
2019-05-26T20:04:04.774Z,39.80
2019-05-26T20:06:33.946Z,40.90
2019-05-26T20:09:02.819Z,41.60
2019-05-26T20:11:32.128Z,42.20
2019-05-26T20:14:00.974Z,43.20
2019-05-26T20:16:30.809Z,43.10
2019-05-26T20:19:00.237Z,44.00
2019-05-26T20:21:30.476Z,45.20
2019-05-26T20:23:59.283Z,46.10
2019-05-26T20:26:29.545Z,47.00
2019-05-26T20:28:58.381Z,47.70
2019-05-26T20:31:27.313Z,48.70
2019-05-26T20:33:56.175Z,49.40
2019-05-26T20:36:25.610Z,49.90
2019-05-26T20:38:54.399Z,50.20
2019-05-26T20:41:24.478Z,50.50
2019-05-26T20:43:53.323Z,51.20
2019-05-26T20:46:22.120Z,51.60
2019-05-26T20:48:50.897Z,52.50
2019-05-26T20:51:24.001Z,52.60
2019-05-26T20:53:52.863Z,52.60
2019-05-26T20:56:21.672Z,52.50
2019-05-26T20:58:50.508Z,53.80
2019-05-26T21:01:19.232Z,53.90
2019-05-26T21:03:48.021Z,54.00
2019-05-26T21:06:18.470Z,54.30
2019-05-26T21:08:47.810Z,55.10
2019-05-26T21:11:16.684Z,55.30
2019-05-26T21:13:45.528Z,55.90
2019-05-26T21:16:14.299Z,55.90
2019-05-26T21:18:43.197Z,55.20
2019-05-26T21:21:12.094Z,55.10
2019-05-26T21:23:41.565Z,55.80
2019-05-26T21:26:10.329Z,55.00
2019-05-26T21:28:39.134Z,56.40
2019-05-26T21:31:08.055Z,55.20
2019-05-26T21:33:36.981Z,54.70
2019-05-26T21:36:05.732Z,53.70
2019-05-26T21:38:34.421Z,53.40
2019-05-26T21:41:03.349Z,52.70
2019-05-26T21:43:32.134Z,52.00
2019-05-26T21:46:01.091Z,50.50
2019-05-26T21:48:29.919Z,49.80
2019-05-26T21:50:58.823Z,48.90
2019-05-26T21:53:27.638Z,48.10
2019-05-26T21:55:56.544Z,47.30
2019-05-26T21:58:25.729Z,46.90
2019-05-26T22:00:54.920Z,46.70
2019-05-26T22:03:25.393Z,46.00
2019-05-26T22:05:54.169Z,45.10
2019-05-26T22:08:22.947Z,44.70
2019-05-26T22:10:51.815Z,44.00
2019-05-26T22:13:20.510Z,43.50
2019-05-26T22:15:50.865Z,42.90
2019-05-26T22:18:19.627Z,41.70
2019-05-26T22:20:48.273Z,42.40
2019-05-26T22:23:17.035Z,42.10
2019-05-26T22:25:45.827Z,42.40
2019-05-26T22:28:14.632Z,43.10
2019-05-26T22:30:43.991Z,43.40
2019-05-26T22:33:12.818Z,44.10
2019-05-26T22:35:41.635Z,44.00
2019-05-26T22:38:10.545Z,44.30
2019-05-26T22:40:39.314Z,44.70
2019-05-26T22:43:08.140Z,45.00
2019-05-26T22:45:36.933Z,45.70
2019-05-26T22:48:05.724Z,45.80
2019-05-26T22:50:34.608Z,46.20
2019-05-26T22:53:03.437Z,46.60
2019-05-26T22:55:32.226Z,46.80
2019-05-26T22:58:00.995Z,47.00
2019-05-26T23:00:29.828Z,47.70
2019-05-26T23:02:58.698Z,48.60
2019-05-26T23:05:27.865Z,48.60
2019-05-26T23:07:56.695Z,48.90
2019-05-26T23:10:25.707Z,48.70
2019-05-26T23:12:54.719Z,48.90
2019-05-26T23:15:24.367Z,48.30
2019-05-26T23:17:53.278Z,48.10
2019-05-26T23:20:22.072Z,48.00
2019-05-26T23:22:51.719Z,47.80
2019-05-26T23:25:20.853Z,48.60
2019-05-26T23:27:49.906Z,48.80
2019-05-26T23:30:19.213Z,49.00
2019-05-26T23:32:48.050Z,49.10
2019-05-26T23:35:16.941Z,49.30
2019-05-26T23:37:45.621Z,49.80
2019-05-26T23:40:15.203Z,50.30
2019-05-26T23:42:44.009Z,50.80
2019-05-26T23:45:13.242Z,51.90
2019-05-26T23:47:42.019Z,51.90
2019-05-26T23:50:11.228Z,51.80
2019-05-26T23:52:40.103Z,51.70
2019-05-26T23:55:09.684Z,52.60
2019-05-26T23:57:38.503Z,53.00
